Glen Rose, Arkansas
Current Conditions -  °F | °C
As of 2:17 PM on Monday 22 Dec 2014 (Local Time) from KHOT Reporting Station
Haze Haze  
Wind Chill: 54°   Ceiling: 500
Heat Index: 54°   Visibility: 5mi
Dew Point: 52°   Wind: 7mph
Humidity: 93%   Direction: NA
Pressure: 29.56"   Gusts: NA
Location:  34.3189°N, 92.8629°W
Report Text: KHOT 222017Z AUTO VRB06KT 5SM BR OVC005 12/11 A2956 RMK AO2 CIG 004V008 T01220111
Loading
Personal Weather Stations






























Interactive Weather Map New forecast layout! Learn more

10-Day Weather Forecast

Advertisements
Track Severe Weather on mobile